createdAt,value
2023-01-29T00:02:30.241Z,17.08
2023-01-29T00:07:31.658Z,15.55
2023-01-29T00:12:33.279Z,16.45
2023-01-29T00:17:34.739Z,12.05
2023-01-29T00:22:36.192Z,15.63
2023-01-29T00:27:37.628Z,16.00
2023-01-29T00:32:39.051Z,17.15
2023-01-29T00:37:40.464Z,18.75
2023-01-29T00:42:41.878Z,18.02
2023-01-29T00:47:43.298Z,16.13
2023-01-29T00:52:44.740Z,18.45
2023-01-29T00:57:46.202Z,17.98
2023-01-29T01:02:47.671Z,15.90
2023-01-29T01:07:49.366Z,13.82
2023-01-29T01:12:50.828Z,15.75
2023-01-29T01:17:52.252Z,13.98
2023-01-29T01:22:53.664Z,11.30
2023-01-29T01:27:55.101Z,11.52
2023-01-29T01:32:56.574Z,11.15
2023-01-29T01:37:58.006Z,10.80
2023-01-29T01:42:59.448Z,9.57
2023-01-29T01:48:00.930Z,10.20
2023-01-29T01:53:02.369Z,7.70
2023-01-29T01:58:03.829Z,10.93
2023-01-29T02:03:05.270Z,9.35
2023-01-29T02:08:06.789Z,11.85
2023-01-29T02:13:08.409Z,12.45
2023-01-29T02:18:09.840Z,9.70
2023-01-29T02:23:11.301Z,12.68
2023-01-29T02:28:12.806Z,15.57
2023-01-29T02:33:14.272Z,12.88
2023-01-29T02:38:15.931Z,13.55
2023-01-29T02:43:17.426Z,16.60
2023-01-29T02:48:18.864Z,15.02
2023-01-29T02:53:20.304Z,15.73
2023-01-29T02:58:21.766Z,13.30
2023-01-29T03:03:23.228Z,13.77
2023-01-29T03:08:24.700Z,11.48
2023-01-29T03:13:26.173Z,11.43
2023-01-29T03:18:27.615Z,14.45
2023-01-29T03:23:29.092Z,9.82
2023-01-29T03:28:30.534Z,7.65
2023-01-29T03:33:31.992Z,10.35
2023-01-29T03:38:33.465Z,10.60
2023-01-29T03:43:34.954Z,11.40
2023-01-29T03:48:36.428Z,8.57
2023-01-29T03:53:37.977Z,11.05
2023-01-29T03:58:39.498Z,16.98
2023-01-29T04:03:40.935Z,9.38
2023-01-29T04:08:42.405Z,11.43
2023-01-29T04:13:43.844Z,7.97
2023-01-29T04:18:45.262Z,8.63
2023-01-29T04:23:46.688Z,7.85
2023-01-29T04:28:48.275Z,10.98
2023-01-29T04:33:49.704Z,11.82
2023-01-29T04:38:51.161Z,11.77
2023-01-29T04:43:52.646Z,11.13
2023-01-29T04:48:54.075Z,8.95
2023-01-29T04:53:55.492Z,10.55
2023-01-29T04:58:56.923Z,13.82
2023-01-29T05:03:58.518Z,10.25
2023-01-29T05:08:59.988Z,13.13
2023-01-29T05:14:01.468Z,13.00
2023-01-29T05:19:03.149Z,12.20
2023-01-29T05:24:04.643Z,11.18
2023-01-29T05:29:06.089Z,15.20
2023-01-29T05:34:07.521Z,11.07
2023-01-29T05:39:09.075Z,11.20
2023-01-29T05:44:10.526Z,13.93
2023-01-29T05:49:11.961Z,10.88
2023-01-29T05:54:13.408Z,14.65
2023-01-29T05:59:14.829Z,14.00
2023-01-29T06:04:16.251Z,11.75
2023-01-29T06:09:17.721Z,9.10
2023-01-29T06:14:19.199Z,14.57
2023-01-29T06:19:20.654Z,11.77
2023-01-29T06:24:22.140Z,15.52
2023-01-29T06:29:23.614Z,14.88
2023-01-29T06:34:25.082Z,13.52
2023-01-29T06:39:26.579Z,13.20
2023-01-29T06:44:28.204Z,14.55
2023-01-29T06:49:29.664Z,13.90
2023-01-29T06:54:31.102Z,13.95
2023-01-29T06:59:32.507Z,11.95
2023-01-29T07:04:33.927Z,14.68
2023-01-29T07:09:35.355Z,11.45
2023-01-29T07:14:36.811Z,13.00
2023-01-29T07:19:38.242Z,11.93
2023-01-29T07:24:39.697Z,13.23
2023-01-29T07:29:41.161Z,14.02
2023-01-29T07:34:42.604Z,11.02
2023-01-29T07:39:44.068Z,14.18
2023-01-29T07:44:45.506Z,12.80
2023-01-29T07:49:46.930Z,14.25
2023-01-29T07:54:48.388Z,13.55
2023-01-29T07:59:49.855Z,8.82
2023-01-29T08:04:51.306Z,13.02
2023-01-29T08:09:52.723Z,17.33
2023-01-29T08:14:54.181Z,10.63
2023-01-29T08:19:55.677Z,14.10
2023-01-29T08:25:06.393Z,15.40
2023-01-29T08:30:09.602Z,16.13
2023-01-29T08:35:11.078Z,17.60
2023-01-29T08:40:12.507Z,12.15
2023-01-29T08:45:13.968Z,13.98
2023-01-29T08:50:15.757Z,14.25
2023-01-29T08:55:17.752Z,14.00
2023-01-29T09:00:19.538Z,11.73
2023-01-29T09:05:21.043Z,12.68
2023-01-29T09:10:22.521Z,16.65
2023-01-29T09:15:24.005Z,15.77
2023-01-29T09:20:25.483Z,15.32
2023-01-29T09:25:26.940Z,15.35
2023-01-29T09:30:28.368Z,13.38
2023-01-29T09:35:29.842Z,17.13
2023-01-29T09:40:31.289Z,12.10
2023-01-29T09:45:32.709Z,17.13
2023-01-29T09:50:34.166Z,14.15
2023-01-29T09:55:35.658Z,15.00
2023-01-29T10:00:37.191Z,15.68
2023-01-29T10:05:38.657Z,15.10
2023-01-29T10:10:40.140Z,16.00
2023-01-29T10:15:41.571Z,13.45
2023-01-29T10:20:43.001Z,19.60
2023-01-29T10:25:44.452Z,30.92
2023-01-29T10:30:45.963Z,12.98
2023-01-29T10:35:47.428Z,15.85
2023-01-29T10:40:48.867Z,18.95
2023-01-29T10:45:50.321Z,14.48
2023-01-29T10:50:51.813Z,15.07
2023-01-29T10:55:53.253Z,14.18
2023-01-29T11:00:54.710Z,14.73
2023-01-29T11:05:56.173Z,17.48
2023-01-29T11:10:57.652Z,11.88
2023-01-29T11:15:59.077Z,13.10
2023-01-29T11:21:00.541Z,15.10
2023-01-29T11:26:01.971Z,13.07
2023-01-29T11:31:03.497Z,11.45
2023-01-29T11:36:05.011Z,12.68
2023-01-29T11:41:06.451Z,13.20
2023-01-29T11:46:07.975Z,12.95
2023-01-29T11:51:09.421Z,12.73
2023-01-29T11:56:10.853Z,15.48
2023-01-29T12:01:12.314Z,10.38
2023-01-29T12:06:13.852Z,11.75
2023-01-29T12:11:15.373Z,8.88
2023-01-29T12:16:16.842Z,13.40
2023-01-29T12:21:18.297Z,9.20
2023-01-29T12:26:19.869Z,11.70
2023-01-29T12:31:21.363Z,9.30
2023-01-29T12:36:22.845Z,12.20
2023-01-29T12:41:24.296Z,8.02
2023-01-29T12:46:25.781Z,8.07
2023-01-29T12:51:27.259Z,7.72
2023-01-29T12:56:28.680Z,10.80
2023-01-29T13:01:30.118Z,10.02
2023-01-29T13:06:31.600Z,12.55
2023-01-29T13:11:33.035Z,14.13
2023-01-29T13:16:34.558Z,11.90
2023-01-29T13:21:36.057Z,13.23
2023-01-29T13:26:37.559Z,15.23
2023-01-29T13:31:39.177Z,16.98
2023-01-29T13:36:40.647Z,16.15
2023-01-29T13:41:42.108Z,16.58
2023-01-29T13:46:43.577Z,18.08
2023-01-29T13:51:45.132Z,16.27
2023-01-29T13:56:46.568Z,14.60
2023-01-29T14:01:48.054Z,16.58
2023-01-29T14:06:49.563Z,18.00
2023-01-29T14:11:51.015Z,13.98
2023-01-29T14:16:52.488Z,15.98
2023-01-29T14:21:53.923Z,20.75
2023-01-29T14:26:55.403Z,15.88
2023-01-29T14:31:56.879Z,22.38
2023-01-29T14:36:58.360Z,20.13
2023-01-29T14:41:59.863Z,19.88
2023-01-29T14:47:01.323Z,16.45
2023-01-29T14:52:02.786Z,18.58
2023-01-29T14:57:04.276Z,20.15
2023-01-29T15:02:05.763Z,21.98
2023-01-29T15:07:07.203Z,21.42
2023-01-29T15:12:08.639Z,20.17
2023-01-29T15:17:10.073Z,23.25
2023-01-29T15:22:11.522Z,21.90
2023-01-29T15:27:13.094Z,22.73
2023-01-29T15:32:14.611Z,19.35
2023-01-29T15:37:16.060Z,22.40
2023-01-29T15:42:17.491Z,15.55
2023-01-29T15:47:18.977Z,16.70
2023-01-29T15:52:20.485Z,13.27
2023-01-29T15:57:21.916Z,18.73
2023-01-29T16:02:24.491Z,17.20
2023-01-29T16:07:25.964Z,20.55
2023-01-29T16:12:27.428Z,19.42
2023-01-29T16:17:28.936Z,20.55
2023-01-29T16:22:30.375Z,19.35
2023-01-29T16:27:31.943Z,17.80
2023-01-29T16:32:33.372Z,20.02
2023-01-29T16:37:34.853Z,20.25
2023-01-29T16:42:36.288Z,24.83
2023-01-29T16:47:37.718Z,21.10
2023-01-29T16:52:39.215Z,22.58
2023-01-29T16:57:40.650Z,21.83
2023-01-29T17:02:42.148Z,19.95
2023-01-29T17:07:43.828Z,19.98
2023-01-29T17:12:45.292Z,22.88
2023-01-29T17:17:46.732Z,18.73
2023-01-29T17:22:48.231Z,18.40
2023-01-29T17:27:49.726Z,18.25
2023-01-29T17:32:51.234Z,21.42
2023-01-29T17:37:55.072Z,15.68
2023-01-29T17:42:56.694Z,20.55
2023-01-29T17:47:58.355Z,22.30
2023-01-29T17:52:59.799Z,23.95
2023-01-29T17:58:01.222Z,33.53
2023-01-29T18:03:02.641Z,23.58
2023-01-29T18:08:04.063Z,28.20
2023-01-29T18:13:05.675Z,23.23
2023-01-29T18:18:07.130Z,19.92
2023-01-29T18:23:08.577Z,28.80
2023-01-29T18:28:10.183Z,29.30
2023-01-29T18:33:11.858Z,31.63
2023-01-29T18:38:13.491Z,30.92
2023-01-29T18:43:15.247Z,26.25
2023-01-29T18:48:16.915Z,15.57
2023-01-29T18:53:18.567Z,26.83
2023-01-29T18:58:27.239Z,31.95
2023-01-29T19:03:37.912Z,31.95
2023-01-29T19:08:39.360Z,31.15
2023-01-29T19:13:40.974Z,33.00
2023-01-29T19:18:42.668Z,29.02
2023-01-29T19:23:44.141Z,26.05
2023-01-29T19:28:45.581Z,31.25
2023-01-29T19:33:47.036Z,30.65
2023-01-29T19:38:48.469Z,35.50
2023-01-29T19:43:50.001Z,28.35
2023-01-29T19:48:51.520Z,34.67
2023-01-29T19:53:52.959Z,30.00
2023-01-29T19:58:54.565Z,28.95
2023-01-29T20:03:56.217Z,35.45
2023-01-29T20:08:57.678Z,34.13
2023-01-29T20:13:59.111Z,33.55
2023-01-29T20:19:14.676Z,33.88
2023-01-29T20:24:16.580Z,40.80
2023-01-29T20:29:18.026Z,49.65
2023-01-29T20:34:19.650Z,40.90
2023-01-29T20:39:21.313Z,40.75
2023-01-29T20:44:22.966Z,38.10
2023-01-29T20:49:24.710Z,34.33
2023-01-29T20:54:26.705Z,31.35
2023-01-29T20:59:28.448Z,34.00
2023-01-29T21:04:29.907Z,31.25
2023-01-29T21:09:31.386Z,37.97
2023-01-29T21:14:32.834Z,30.20
2023-01-29T21:19:34.333Z,33.28
2023-01-29T21:24:35.768Z,35.30
2023-01-29T21:29:37.870Z,33.10
2023-01-29T21:34:39.423Z,31.88
2023-01-29T21:39:40.946Z,27.70
2023-01-29T21:44:42.444Z,26.85
2023-01-29T21:49:43.880Z,32.90
2023-01-29T21:54:45.341Z,32.63
2023-01-29T21:59:52.818Z,27.95
2023-01-29T22:04:55.688Z,25.00
2023-01-29T22:09:58.351Z,29.83
2023-01-29T22:14:59.897Z,27.92
2023-01-29T22:20:01.412Z,24.90
2023-01-29T22:25:02.852Z,27.85
2023-01-29T22:30:04.285Z,24.90
2023-01-29T22:35:05.709Z,22.40
2023-01-29T22:40:07.124Z,25.77
2023-01-29T22:45:08.596Z,26.60
2023-01-29T22:50:10.037Z,23.20
2023-01-29T22:55:11.468Z,20.50
2023-01-29T23:00:12.956Z,25.65
2023-01-29T23:05:14.421Z,18.15
2023-01-29T23:10:16.224Z,22.00
2023-01-29T23:15:17.918Z,24.08
2023-01-29T23:20:19.627Z,23.17
2023-01-29T23:25:21.141Z,22.88
2023-01-29T23:30:22.612Z,24.83
2023-01-29T23:35:24.179Z,24.20
2023-01-29T23:40:25.648Z,25.80
2023-01-29T23:45:27.066Z,30.83
2023-01-29T23:50:28.478Z,32.70
2023-01-29T23:55:29.894Z,29.40
